sensor_id;sensor_type;location;lat;lon;timestamp;pressure;altitude;pressure_sealevel;temperature;humidity
69570;BME280;56781;42.292;23.146;2023-02-12T00:00:43;96635.97;;;-6.05;89.23
69570;BME280;56781;42.292;23.146;2023-02-12T00:03:11;96644.59;;;-6.13;90.41
69570;BME280;56781;42.292;23.146;2023-02-12T00:05:39;96630.19;;;-6.40;91.50
69570;BME280;56781;42.292;23.146;2023-02-12T00:08:08;96632.94;;;-6.50;92.74
69570;BME280;56781;42.292;23.146;2023-02-12T00:10:41;96602.22;;;-6.71;92.52
69570;BME280;56781;42.292;23.146;2023-02-12T00:13:12;96616.22;;;-6.72;93.11
69570;BME280;56781;42.292;23.146;2023-02-12T00:15:41;96615.56;;;-6.65;93.15
69570;BME280;56781;42.292;23.146;2023-02-12T00:18:09;96621.75;;;-6.58;93.30
69570;BME280;56781;42.292;23.146;2023-02-12T00:20:37;96619.59;;;-6.47;92.88
69570;BME280;56781;42.292;23.146;2023-02-12T00:23:05;96636.00;;;-6.38;93.01
69570;BME280;56781;42.292;23.146;2023-02-12T00:25:33;96618.00;;;-6.56;92.01
69570;BME280;56781;42.292;23.146;2023-02-12T00:28:00;96614.91;;;-6.51;91.88
69570;BME280;56781;42.292;23.146;2023-02-12T00:30:27;96608.41;;;-6.63;91.51
69570;BME280;56781;42.292;23.146;2023-02-12T00:32:54;96609.38;;;-6.48;91.92
69570;BME280;56781;42.292;23.146;2023-02-12T00:35:21;96611.94;;;-6.32;91.44
69570;BME280;56781;42.292;23.146;2023-02-12T00:37:48;96610.59;;;-6.28;90.60
69570;BME280;56781;42.292;23.146;2023-02-12T00:40:15;96643.13;;;-6.07;89.96
69570;BME280;56781;42.292;23.146;2023-02-12T00:42:42;96628.75;;;-6.67;89.80
69570;BME280;56781;42.292;23.146;2023-02-12T00:45:10;96633.63;;;-7.13;92.59
69570;BME280;56781;42.292;23.146;2023-02-12T00:47:37;96626.97;;;-7.16;93.26
69570;BME280;56781;42.292;23.146;2023-02-12T00:50:04;96594.75;;;-7.23;93.53
69570;BME280;56781;42.292;23.146;2023-02-12T00:52:32;96635.25;;;-6.79;93.73
69570;BME280;56781;42.292;23.146;2023-02-12T00:54:59;96612.31;;;-7.17;93.42
69570;BME280;56781;42.292;23.146;2023-02-12T00:57:26;96620.41;;;-7.44;94.33
69570;BME280;56781;42.292;23.146;2023-02-12T00:59:53;96656.84;;;-7.36;95.48
69570;BME280;56781;42.292;23.146;2023-02-12T01:02:20;96610.97;;;-7.62;96.55
69570;BME280;56781;42.292;23.146;2023-02-12T01:04:47;96604.00;;;-7.53;96.67
69570;BME280;56781;42.292;23.146;2023-02-12T01:07:14;96608.75;;;-7.32;95.79
69570;BME280;56781;42.292;23.146;2023-02-12T01:09:41;96613.44;;;-7.36;96.26
69570;BME280;56781;42.292;23.146;2023-02-12T01:12:09;96628.75;;;-7.32;96.45
69570;BME280;56781;42.292;23.146;2023-02-12T01:14:36;96601.53;;;-7.54;96.84
69570;BME280;56781;42.292;23.146;2023-02-12T01:17:03;96576.88;;;-7.50;96.66
69570;BME280;56781;42.292;23.146;2023-02-12T01:19:30;96581.09;;;-7.17;95.19
69570;BME280;56781;42.292;23.146;2023-02-12T01:21:57;96575.22;;;-7.68;95.00
69570;BME280;56781;42.292;23.146;2023-02-12T01:24:24;96559.22;;;-7.97;97.35
69570;BME280;56781;42.292;23.146;2023-02-12T01:26:51;96559.78;;;-8.20;97.26
69570;BME280;56781;42.292;23.146;2023-02-12T01:29:18;96568.88;;;-8.24;97.50
69570;BME280;56781;42.292;23.146;2023-02-12T01:31:46;96579.50;;;-8.01;97.94
69570;BME280;56781;42.292;23.146;2023-02-12T01:34:13;96565.09;;;-7.79;97.46
69570;BME280;56781;42.292;23.146;2023-02-12T01:36:40;96576.03;;;-7.59;96.54
69570;BME280;56781;42.292;23.146;2023-02-12T01:39:10;96588.41;;;-7.37;96.45
69570;BME280;56781;42.292;23.146;2023-02-12T01:41:43;96548.94;;;-7.32;95.05
69570;BME280;56781;42.292;23.146;2023-02-12T01:44:19;96555.59;;;-7.05;93.61
69570;BME280;56781;42.292;23.146;2023-02-12T01:46:49;96568.09;;;-6.76;93.09
69570;BME280;56781;42.292;23.146;2023-02-12T01:49:34;96546.28;;;-6.91;92.89
69570;BME280;56781;42.292;23.146;2023-02-12T01:52:12;96550.22;;;-7.11;92.49
69570;BME280;56781;42.292;23.146;2023-02-12T01:54:41;96547.63;;;-7.20;92.82
69570;BME280;56781;42.292;23.146;2023-02-12T01:57:11;96572.78;;;-6.71;92.61
69570;BME280;56781;42.292;23.146;2023-02-12T01:59:40;96569.84;;;-6.76;92.38
69570;BME280;56781;42.292;23.146;2023-02-12T02:02:09;96554.44;;;-6.86;92.26
69570;BME280;56781;42.292;23.146;2023-02-12T02:04:40;96552.47;;;-6.76;92.40
69570;BME280;56781;42.292;23.146;2023-02-12T02:07:09;96555.19;;;-6.69;91.86
69570;BME280;56781;42.292;23.146;2023-02-12T02:09:38;96549.22;;;-6.86;92.42
69570;BME280;56781;42.292;23.146;2023-02-12T02:12:07;96563.06;;;-7.10;95.33
69570;BME280;56781;42.292;23.146;2023-02-12T02:14:55;96592.66;;;-6.86;96.87
69570;BME280;56781;42.292;23.146;2023-02-12T02:23:08;96561.75;;;-6.98;97.05
69570;BME280;56781;42.292;23.146;2023-02-12T02:26:13;96597.16;;;-6.48;96.70
69570;BME280;56781;42.292;23.146;2023-02-12T02:29:03;96573.00;;;-6.33;95.92
69570;BME280;56781;42.292;23.146;2023-02-12T02:31:43;96575.19;;;-6.53;96.35
69570;BME280;56781;42.292;23.146;2023-02-12T02:39:41;96552.47;;;-6.76;98.51
69570;BME280;56781;42.292;23.146;2023-02-12T02:42:16;96559.25;;;-6.58;97.42
69570;BME280;56781;42.292;23.146;2023-02-12T02:44:51;96540.03;;;-6.57;97.73
69570;BME280;56781;42.292;23.146;2023-02-12T02:47:29;96591.06;;;-6.23;96.99
69570;BME280;56781;42.292;23.146;2023-02-12T02:50:03;96553.38;;;-6.52;97.58
69570;BME280;56781;42.292;23.146;2023-02-12T02:52:36;96556.72;;;-6.35;96.75
69570;BME280;56781;42.292;23.146;2023-02-12T02:55:07;96563.25;;;-6.31;95.74
69570;BME280;56781;42.292;23.146;2023-02-12T02:57:51;96557.28;;;-6.48;96.58
69570;BME280;56781;42.292;23.146;2023-02-12T03:00:38;96551.75;;;-6.53;96.63
69570;BME280;56781;42.292;23.146;2023-02-12T03:03:27;96553.00;;;-6.41;96.74
69570;BME280;56781;42.292;23.146;2023-02-12T03:06:05;96565.94;;;-6.16;96.28
69570;BME280;56781;42.292;23.146;2023-02-12T03:08:38;96572.16;;;-6.17;96.03
69570;BME280;56781;42.292;23.146;2023-02-12T03:11:17;96567.25;;;-6.12;96.11
69570;BME280;56781;42.292;23.146;2023-02-12T03:14:06;96566.44;;;-5.90;96.47
69570;BME280;56781;42.292;23.146;2023-02-12T03:16:48;96571.66;;;-5.90;97.41
69570;BME280;56781;42.292;23.146;2023-02-12T03:19:24;96569.63;;;-5.71;96.32
69570;BME280;56781;42.292;23.146;2023-02-12T03:21:57;96573.50;;;-5.67;94.02
69570;BME280;56781;42.292;23.146;2023-02-12T03:27:04;96568.38;;;-5.52;94.58
69570;BME280;56781;42.292;23.146;2023-02-12T03:29:33;96522.47;;;-5.93;93.74
69570;BME280;56781;42.292;23.146;2023-02-12T03:35:15;96588.50;;;-5.15;91.17
69570;BME280;56781;42.292;23.146;2023-02-12T03:37:53;96602.09;;;-5.05;92.00
69570;BME280;56781;42.292;23.146;2023-02-12T03:40:33;96545.88;;;-5.30;91.30
69570;BME280;56781;42.292;23.146;2023-02-12T03:43:14;96567.91;;;-5.10;90.85
69570;BME280;56781;42.292;23.146;2023-02-12T03:45:56;96567.50;;;-4.99;89.59
69570;BME280;56781;42.292;23.146;2023-02-12T03:48:35;96581.66;;;-4.78;91.24
69570;BME280;56781;42.292;23.146;2023-02-12T03:51:23;96570.84;;;-4.75;89.78
69570;BME280;56781;42.292;23.146;2023-02-12T03:53:54;96545.91;;;-4.78;89.77
69570;BME280;56781;42.292;23.146;2023-02-12T03:56:29;96539.72;;;-4.62;88.35
69570;BME280;56781;42.292;23.146;2023-02-12T03:58:57;96578.84;;;-4.39;89.51
69570;BME280;56781;42.292;23.146;2023-02-12T04:01:26;96536.84;;;-4.52;88.39
69570;BME280;56781;42.292;23.146;2023-02-12T04:03:54;96530.34;;;-4.71;88.94
69570;BME280;56781;42.292;23.146;2023-02-12T04:06:25;96530.69;;;-4.74;89.37
69570;BME280;56781;42.292;23.146;2023-02-12T04:08:55;96531.34;;;-4.57;86.69
69570;BME280;56781;42.292;23.146;2023-02-12T04:11:35;96535.38;;;-4.40;85.17
69570;BME280;56781;42.292;23.146;2023-02-12T04:14:38;96526.28;;;-4.14;85.86
69570;BME280;56781;42.292;23.146;2023-02-12T04:17:34;96534.28;;;-4.16;86.05
69570;BME280;56781;42.292;23.146;2023-02-12T04:23:31;96532.59;;;-4.09;87.24
69570;BME280;56781;42.292;23.146;2023-02-12T04:26:28;96550.03;;;-3.80;85.15
69570;BME280;56781;42.292;23.146;2023-02-12T04:31:56;96536.63;;;-3.70;83.73
69570;BME280;56781;42.292;23.146;2023-02-12T04:34:38;96543.84;;;-3.57;82.66
69570;BME280;56781;42.292;23.146;2023-02-12T04:37:17;96522.75;;;-3.70;83.54
69570;BME280;56781;42.292;23.146;2023-02-12T04:39:45;96533.78;;;-3.53;83.20
69570;BME280;56781;42.292;23.146;2023-02-12T04:42:14;96515.47;;;-3.53;82.86
69570;BME280;56781;42.292;23.146;2023-02-12T04:44:42;96520.59;;;-3.45;82.27
69570;BME280;56781;42.292;23.146;2023-02-12T04:47:15;96528.19;;;-3.50;83.23
69570;BME280;56781;42.292;23.146;2023-02-12T04:49:42;96527.09;;;-3.41;82.44
69570;BME280;56781;42.292;23.146;2023-02-12T04:52:10;96505.91;;;-3.46;81.75
69570;BME280;56781;42.292;23.146;2023-02-12T04:54:37;96540.84;;;-3.32;83.13
69570;BME280;56781;42.292;23.146;2023-02-12T04:57:04;96551.75;;;-3.29;85.29
69570;BME280;56781;42.292;23.146;2023-02-12T04:59:31;96540.44;;;-3.36;85.41
69570;BME280;56781;42.292;23.146;2023-02-12T05:01:58;96566.81;;;-2.88;82.73
69570;BME280;56781;42.292;23.146;2023-02-12T05:04:26;96522.44;;;-3.18;83.24
69570;BME280;56781;42.292;23.146;2023-02-12T05:06:53;96557.88;;;-3.00;83.63
69570;BME280;56781;42.292;23.146;2023-02-12T05:09:20;96519.81;;;-3.18;83.02
69570;BME280;56781;42.292;23.146;2023-02-12T05:11:47;96534.06;;;-3.27;83.45
69570;BME280;56781;42.292;23.146;2023-02-12T05:14:14;96529.06;;;-3.22;82.51
69570;BME280;56781;42.292;23.146;2023-02-12T05:16:42;96536.03;;;-3.07;82.47
69570;BME280;56781;42.292;23.146;2023-02-12T05:19:09;96531.56;;;-3.14;81.55
69570;BME280;56781;42.292;23.146;2023-02-12T05:21:37;96526.31;;;-3.14;81.75
69570;BME280;56781;42.292;23.146;2023-02-12T05:24:05;96530.88;;;-3.01;81.54
69570;BME280;56781;42.292;23.146;2023-02-12T05:26:32;96547.28;;;-2.85;80.99
69570;BME280;56781;42.292;23.146;2023-02-12T05:29:00;96540.34;;;-2.72;80.24
69570;BME280;56781;42.292;23.146;2023-02-12T05:31:27;96538.34;;;-2.70;80.13
69570;BME280;56781;42.292;23.146;2023-02-12T05:33:54;96532.31;;;-2.63;79.70
69570;BME280;56781;42.292;23.146;2023-02-12T05:36:23;96559.09;;;-2.40;79.86
69570;BME280;56781;42.292;23.146;2023-02-12T05:38:51;96560.59;;;-2.59;80.48
69570;BME280;56781;42.292;23.146;2023-02-12T05:41:21;96569.50;;;-2.53;82.42
69570;BME280;56781;42.292;23.146;2023-02-12T05:43:49;96554.78;;;-2.54;83.16
69570;BME280;56781;42.292;23.146;2023-02-12T05:46:18;96588.28;;;-2.21;84.83
69570;BME280;56781;42.292;23.146;2023-02-12T05:48:46;96549.00;;;-2.08;80.78
69570;BME280;56781;42.292;23.146;2023-02-12T05:51:19;96569.56;;;-1.64;79.62
69570;BME280;56781;42.292;23.146;2023-02-12T05:53:52;96618.75;;;-1.31;80.12
69570;BME280;56781;42.292;23.146;2023-02-12T05:56:24;96597.34;;;-1.28;76.74
69570;BME280;56781;42.292;23.146;2023-02-12T05:58:54;96632.84;;;-0.24;71.73
69570;BME280;56781;42.292;23.146;2023-02-12T06:01:27;96589.72;;;-0.23;73.13
69570;BME280;56781;42.292;23.146;2023-02-12T06:03:55;96595.81;;;-0.29;75.02
69570;BME280;56781;42.292;23.146;2023-02-12T06:06:27;96618.88;;;-0.18;75.46
69570;BME280;56781;42.292;23.146;2023-02-12T06:08:54;96624.13;;;-0.25;77.09
69570;BME280;56781;42.292;23.146;2023-02-12T06:11:21;96615.66;;;-0.40;78.82
69570;BME280;56781;42.292;23.146;2023-02-12T06:13:49;96619.69;;;-0.51;79.11
69570;BME280;56781;42.292;23.146;2023-02-12T06:16:23;96621.31;;;-0.50;78.92
69570;BME280;56781;42.292;23.146;2023-02-12T06:18:52;96615.84;;;-0.55;79.20
69570;BME280;56781;42.292;23.146;2023-02-12T06:21:20;96617.66;;;-0.55;79.90
69570;BME280;56781;42.292;23.146;2023-02-12T06:23:49;96614.41;;;-0.57;80.10
69570;BME280;56781;42.292;23.146;2023-02-12T06:26:17;96662.78;;;-0.32;80.37
69570;BME280;56781;42.292;23.146;2023-02-12T06:28:45;96670.25;;;-0.35;81.56
69570;BME280;56781;42.292;23.146;2023-02-12T06:31:21;96639.50;;;-0.68;82.83
69570;BME280;56781;42.292;23.146;2023-02-12T06:33:50;96643.75;;;-0.80;84.21
69570;BME280;56781;42.292;23.146;2023-02-12T06:36:18;96639.91;;;-0.78;84.60
69570;BME280;56781;42.292;23.146;2023-02-12T06:38:45;96660.94;;;-0.58;84.80
69570;BME280;56781;42.292;23.146;2023-02-12T06:41:13;96641.53;;;-0.70;85.05
69570;BME280;56781;42.292;23.146;2023-02-12T06:43:41;96660.34;;;-0.47;84.86
69570;BME280;56781;42.292;23.146;2023-02-12T06:46:08;96617.47;;;-0.67;84.22
69570;BME280;56781;42.292;23.146;2023-02-12T06:48:36;96645.19;;;-0.45;84.00
69570;BME280;56781;42.292;23.146;2023-02-12T06:51:12;96635.47;;;-0.51;85.08
69570;BME280;56781;42.292;23.146;2023-02-12T06:53:39;96643.16;;;-0.42;86.87
69570;BME280;56781;42.292;23.146;2023-02-12T06:56:07;96614.84;;;-0.54;86.43
69570;BME280;56781;42.292;23.146;2023-02-12T06:58:41;96645.59;;;-0.34;87.05
69570;BME280;56781;42.292;23.146;2023-02-12T07:01:12;96640.31;;;-0.28;86.83
69570;BME280;56781;42.292;23.146;2023-02-12T07:03:41;96641.13;;;-0.20;85.20
69570;BME280;56781;42.292;23.146;2023-02-12T07:06:09;96627.78;;;-0.19;84.33
69570;BME280;56781;42.292;23.146;2023-02-12T07:08:36;96603.91;;;-0.24;83.08
69570;BME280;56781;42.292;23.146;2023-02-12T07:11:03;96639.69;;;-0.03;83.50
69570;BME280;56781;42.292;23.146;2023-02-12T07:13:32;96650.81;;;-0.01;83.36
69570;BME280;56781;42.292;23.146;2023-02-12T07:16:05;96640.31;;;0.06;83.37
69570;BME280;56781;42.292;23.146;2023-02-12T07:18:33;96642.06;;;0.25;80.27
69570;BME280;56781;42.292;23.146;2023-02-12T07:21:02;96590.06;;;0.14;79.27
69570;BME280;56781;42.292;23.146;2023-02-12T07:23:30;96610.25;;;0.27;79.80
69570;BME280;56781;42.292;23.146;2023-02-12T07:26:00;96588.44;;;0.13;80.91
69570;BME280;56781;42.292;23.146;2023-02-12T07:28:27;96594.31;;;0.15;81.64
69570;BME280;56781;42.292;23.146;2023-02-12T07:30:55;96569.81;;;0.08;80.87
69570;BME280;56781;42.292;23.146;2023-02-12T07:33:22;96607.00;;;0.31;80.98
69570;BME280;56781;42.292;23.146;2023-02-12T07:35:49;96580.28;;;0.21;81.06
69570;BME280;56781;42.292;23.146;2023-02-12T07:38:16;96613.41;;;0.49;79.88
69570;BME280;56781;42.292;23.146;2023-02-12T07:40:44;96560.88;;;0.22;80.42
69570;BME280;56781;42.292;23.146;2023-02-12T07:43:11;96563.31;;;0.17;79.63
69570;BME280;56781;42.292;23.146;2023-02-12T07:45:38;96613.78;;;0.59;80.01
69570;BME280;56781;42.292;23.146;2023-02-12T07:48:05;96596.03;;;0.41;82.11
69570;BME280;56781;42.292;23.146;2023-02-12T07:50:32;96580.91;;;0.23;83.74
69570;BME280;56781;42.292;23.146;2023-02-12T07:52:59;96610.63;;;0.43;83.44
69570;BME280;56781;42.292;23.146;2023-02-12T07:55:26;96592.00;;;0.32;82.70
69570;BME280;56781;42.292;23.146;2023-02-12T07:57:54;96561.84;;;0.28;83.15
69570;BME280;56781;42.292;23.146;2023-02-12T08:00:21;96579.81;;;0.37;82.01
69570;BME280;56781;42.292;23.146;2023-02-12T08:02:52;96579.59;;;0.46;82.12
69570;BME280;56781;42.292;23.146;2023-02-12T08:05:20;96571.53;;;0.34;82.59
69570;BME280;56781;42.292;23.146;2023-02-12T08:07:47;96578.59;;;0.47;82.94
69570;BME280;56781;42.292;23.146;2023-02-12T08:10:14;96591.84;;;0.65;82.06
69570;BME280;56781;42.292;23.146;2023-02-12T08:12:41;96615.50;;;0.78;81.76
69570;BME280;56781;42.292;23.146;2023-02-12T08:15:09;96615.75;;;0.70;82.58
69570;BME280;56781;42.292;23.146;2023-02-12T08:17:36;96586.34;;;0.73;81.40
69570;BME280;56781;42.292;23.146;2023-02-12T08:20:04;96607.34;;;0.93;80.35
69570;BME280;56781;42.292;23.146;2023-02-12T08:22:31;96602.19;;;1.05;80.33
69570;BME280;56781;42.292;23.146;2023-02-12T08:24:58;96573.00;;;1.00;78.80
69570;BME280;56781;42.292;23.146;2023-02-12T08:27:25;96573.63;;;1.02;78.14
69570;BME280;56781;42.292;23.146;2023-02-12T08:29:52;96585.94;;;1.08;76.02
69570;BME280;56781;42.292;23.146;2023-02-12T08:32:19;96590.25;;;1.27;76.19
69570;BME280;56781;42.292;23.146;2023-02-12T08:34:47;96559.03;;;0.99;74.55
69570;BME280;56781;42.292;23.146;2023-02-12T08:37:14;96581.56;;;1.27;75.03
69570;BME280;56781;42.292;23.146;2023-02-12T08:39:42;96621.69;;;1.61;74.72
69570;BME280;56781;42.292;23.146;2023-02-12T08:42:09;96605.53;;;1.50;74.88
69570;BME280;56781;42.292;23.146;2023-02-12T08:44:36;96609.13;;;1.56;74.74
69570;BME280;56781;42.292;23.146;2023-02-12T08:47:03;96609.47;;;1.41;74.01
69570;BME280;56781;42.292;23.146;2023-02-12T08:49:32;96613.38;;;1.32;72.81
69570;BME280;56781;42.292;23.146;2023-02-12T08:51:59;96604.13;;;1.23;72.12
69570;BME280;56781;42.292;23.146;2023-02-12T08:54:29;96625.16;;;1.29;72.93
69570;BME280;56781;42.292;23.146;2023-02-12T08:56:59;96613.59;;;1.30;72.89
69570;BME280;56781;42.292;23.146;2023-02-12T08:59:27;96618.28;;;1.28;73.61
69570;BME280;56781;42.292;23.146;2023-02-12T09:01:54;96625.44;;;1.46;73.51
69570;BME280;56781;42.292;23.146;2023-02-12T09:04:24;96633.16;;;1.48;73.48
69570;BME280;56781;42.292;23.146;2023-02-12T09:06:51;96627.06;;;1.47;72.09
69570;BME280;56781;42.292;23.146;2023-02-12T09:09:19;96632.38;;;1.41;73.44
69570;BME280;56781;42.292;23.146;2023-02-12T09:11:46;96656.25;;;1.21;74.52
69570;BME280;56781;42.292;23.146;2023-02-12T09:14:15;96643.41;;;1.31;73.29
69570;BME280;56781;42.292;23.146;2023-02-12T09:16:43;96670.16;;;1.35;74.09
69570;BME280;56781;42.292;23.146;2023-02-12T09:19:12;96653.25;;;1.10;73.95
69570;BME280;56781;42.292;23.146;2023-02-12T09:21:40;96649.66;;;1.05;75.32
69570;BME280;56781;42.292;23.146;2023-02-12T09:24:08;96675.09;;;1.24;75.83
69570;BME280;56781;42.292;23.146;2023-02-12T09:26:35;96645.47;;;0.91;75.29
69570;BME280;56781;42.292;23.146;2023-02-12T09:29:03;96628.69;;;0.78;76.47
69570;BME280;56781;42.292;23.146;2023-02-12T09:31:31;96673.56;;;1.10;76.32
69570;BME280;56781;42.292;23.146;2023-02-12T09:34:03;96639.88;;;1.12;75.56
69570;BME280;56781;42.292;23.146;2023-02-12T09:36:31;96642.94;;;1.09;76.08
69570;BME280;56781;42.292;23.146;2023-02-12T09:38:59;96654.84;;;1.18;76.82
69570;BME280;56781;42.292;23.146;2023-02-12T09:41:46;96667.97;;;1.25;76.71
69570;BME280;56781;42.292;23.146;2023-02-12T09:44:47;96637.06;;;1.07;77.26
69570;BME280;56781;42.292;23.146;2023-02-12T09:47:30;96642.69;;;1.17;77.31
69570;BME280;56781;42.292;23.146;2023-02-12T09:52:33;96645.53;;;1.16;76.75
69570;BME280;56781;42.292;23.146;2023-02-12T09:55:01;96677.06;;;1.36;77.41
69570;BME280;56781;42.292;23.146;2023-02-12T09:57:36;96639.03;;;1.18;77.08
69570;BME280;56781;42.292;23.146;2023-02-12T10:02:38;96637.75;;;1.27;76.69
69570;BME280;56781;42.292;23.146;2023-02-12T10:05:18;96651.88;;;1.40;77.20
69570;BME280;56781;42.292;23.146;2023-02-12T10:08:08;96676.97;;;1.49;76.96
69570;BME280;56781;42.292;23.146;2023-02-12T10:13:48;96642.94;;;1.41;77.30
69570;BME280;56781;42.292;23.146;2023-02-12T10:16:29;96656.78;;;1.36;77.49
69570;BME280;56781;42.292;23.146;2023-02-12T10:19:17;96646.50;;;1.21;78.49
69570;BME280;56781;42.292;23.146;2023-02-12T10:24:45;96648.00;;;1.10;79.03
69570;BME280;56781;42.292;23.146;2023-02-12T10:27:17;96642.34;;;1.07;79.26
69570;BME280;56781;42.292;23.146;2023-02-12T10:29:47;96660.03;;;1.31;79.41
69570;BME280;56781;42.292;23.146;2023-02-12T10:32:26;96625.06;;;1.11;77.94
69570;BME280;56781;42.292;23.146;2023-02-12T10:34:56;96632.16;;;1.10;79.17
69570;BME280;56781;42.292;23.146;2023-02-12T10:37:41;96632.97;;;1.11;79.01
69570;BME280;56781;42.292;23.146;2023-02-12T10:40:24;96633.81;;;1.05;80.06
69570;BME280;56781;42.292;23.146;2023-02-12T10:42:57;96633.81;;;1.05;79.93
69570;BME280;56781;42.292;23.146;2023-02-12T10:45:33;96636.91;;;1.02;79.83
69570;BME280;56781;42.292;23.146;2023-02-12T10:48:15;96657.94;;;1.08;80.43
69570;BME280;56781;42.292;23.146;2023-02-12T10:53:36;96640.41;;;0.89;80.30
69570;BME280;56781;42.292;23.146;2023-02-12T10:56:20;96675.00;;;1.06;80.71
69570;BME280;56781;42.292;23.146;2023-02-12T10:58:58;96654.59;;;0.88;80.97
69570;BME280;56781;42.292;23.146;2023-02-12T11:01:30;96645.66;;;0.89;80.90
69570;BME280;56781;42.292;23.146;2023-02-12T11:04:17;96639.81;;;0.87;81.04
69570;BME280;56781;42.292;23.146;2023-02-12T11:07:04;96674.16;;;1.12;81.25
69570;BME280;56781;42.292;23.146;2023-02-12T11:09:41;96645.22;;;0.99;81.52
69570;BME280;56781;42.292;23.146;2023-02-12T11:12:41;96624.31;;;1.04;80.94
69570;BME280;56781;42.292;23.146;2023-02-12T11:15:19;96635.47;;;1.06;80.93
69570;BME280;56781;42.292;23.146;2023-02-12T11:17:57;96641.66;;;1.18;80.95
69570;BME280;56781;42.292;23.146;2023-02-12T11:20:28;96632.97;;;1.11;81.24
69570;BME280;56781;42.292;23.146;2023-02-12T11:23:01;96640.22;;;1.22;81.09
69570;BME280;56781;42.292;23.146;2023-02-12T11:25:31;96672.09;;;1.52;81.04
69570;BME280;56781;42.292;23.146;2023-02-12T11:28:14;96638.47;;;1.41;81.15
69570;BME280;56781;42.292;23.146;2023-02-12T11:31:00;96650.50;;;1.62;80.45
69570;BME280;56781;42.292;23.146;2023-02-12T11:33:35;96630.34;;;1.68;80.04
69570;BME280;56781;42.292;23.146;2023-02-12T11:36:04;96639.13;;;1.87;79.57
69570;BME280;56781;42.292;23.146;2023-02-12T11:38:51;96655.25;;;2.04;79.11
69570;BME280;56781;42.292;23.146;2023-02-12T11:41:34;96626.41;;;2.02;78.98
69570;BME280;56781;42.292;23.146;2023-02-12T11:44:18;96616.75;;;1.89;78.50
69570;BME280;56781;42.292;23.146;2023-02-12T11:46:55;96618.03;;;2.05;78.49
69570;BME280;56781;42.292;23.146;2023-02-12T11:49:30;96605.59;;;2.31;78.08
69570;BME280;56781;42.292;23.146;2023-02-12T11:52:01;96644.91;;;2.76;76.82
69570;BME280;56781;42.292;23.146;2023-02-12T11:54:33;96602.75;;;2.62;75.55
69570;BME280;56781;42.292;23.146;2023-02-12T11:57:02;96609.78;;;2.69;75.99
69570;BME280;56781;42.292;23.146;2023-02-12T11:59:35;96616.78;;;2.63;75.86
69570;BME280;56781;42.292;23.146;2023-02-12T12:02:18;96590.66;;;2.85;75.91
69570;BME280;56781;42.292;23.146;2023-02-12T12:04:51;96628.41;;;2.92;75.80
69570;BME280;56781;42.292;23.146;2023-02-12T12:07:31;96594.53;;;2.52;76.18
69570;BME280;56781;42.292;23.146;2023-02-12T12:10:12;96576.88;;;2.34;77.11
69570;BME280;56781;42.292;23.146;2023-02-12T12:12:55;96615.81;;;2.76;76.98
69570;BME280;56781;42.292;23.146;2023-02-12T12:15:47;96609.69;;;2.63;77.56
69570;BME280;56781;42.292;23.146;2023-02-12T12:18:53;96566.66;;;2.56;76.18
69570;BME280;56781;42.292;23.146;2023-02-12T12:24:22;96591.09;;;2.70;75.77
69570;BME280;56781;42.292;23.146;2023-02-12T12:27:00;96586.25;;;2.97;76.49
69570;BME280;56781;42.292;23.146;2023-02-12T12:29:45;96587.28;;;2.66;76.09
69570;BME280;56781;42.292;23.146;2023-02-12T12:32:19;96588.63;;;2.87;76.05
69570;BME280;56781;42.292;23.146;2023-02-12T12:34:48;96615.06;;;2.87;75.53
69570;BME280;56781;42.292;23.146;2023-02-12T12:37:36;96592.19;;;2.62;76.73
69570;BME280;56781;42.292;23.146;2023-02-12T12:45:41;96587.97;;;2.73;75.62
69570;BME280;56781;42.292;23.146;2023-02-12T13:07:24;96598.38;;;3.17;75.31
69570;BME280;56781;42.292;23.146;2023-02-12T13:12:45;96613.66;;;3.15;75.42
69570;BME280;56781;42.292;23.146;2023-02-12T13:15:29;96634.09;;;3.26;75.76
69570;BME280;56781;42.292;23.146;2023-02-12T13:24:04;96614.69;;;3.14;75.65
69570;BME280;56781;42.292;23.146;2023-02-12T13:29:27;96619.03;;;2.96;75.42
69570;BME280;56781;42.292;23.146;2023-02-12T13:34:29;96621.28;;;2.93;76.14
69570;BME280;56781;42.292;23.146;2023-02-12T13:37:01;96632.56;;;2.88;76.30
69570;BME280;56781;42.292;23.146;2023-02-12T13:39:42;96644.00;;;2.82;76.83
69570;BME280;56781;42.292;23.146;2023-02-12T13:42:49;96656.47;;;2.93;77.37
69570;BME280;56781;42.292;23.146;2023-02-12T13:51:11;96681.31;;;2.92;76.63
69570;BME280;56781;42.292;23.146;2023-02-12T13:56:37;96671.63;;;2.86;76.30
69570;BME280;56781;42.292;23.146;2023-02-12T14:01:59;96670.97;;;2.91;75.66
69570;BME280;56781;42.292;23.146;2023-02-12T14:04:31;96676.31;;;2.84;75.53
69570;BME280;56781;42.292;23.146;2023-02-12T14:12:26;96702.56;;;2.67;75.06
69570;BME280;56781;42.292;23.146;2023-02-12T14:15:07;96677.66;;;2.38;75.91
69570;BME280;56781;42.292;23.146;2023-02-12T14:20:28;96691.91;;;2.55;75.84
69570;BME280;56781;42.292;23.146;2023-02-12T14:22:59;96705.78;;;2.87;76.02
69570;BME280;56781;42.292;23.146;2023-02-12T14:25:43;96687.78;;;2.59;76.12
69570;BME280;56781;42.292;23.146;2023-02-12T14:28:22;96717.47;;;2.80;75.93
69570;BME280;56781;42.292;23.146;2023-02-12T14:31:34;96692.78;;;2.67;75.59
69570;BME280;56781;42.292;23.146;2023-02-12T14:39:03;96695.69;;;2.41;76.87
69570;BME280;56781;42.292;23.146;2023-02-12T14:41:37;96713.72;;;2.51;76.96
69570;BME280;56781;42.292;23.146;2023-02-12T14:47:00;96713.03;;;2.37;77.01
69570;BME280;56781;42.292;23.146;2023-02-12T14:49:43;96718.09;;;2.38;77.19
69570;BME280;56781;42.292;23.146;2023-02-12T14:55:00;96737.25;;;2.34;77.52
69570;BME280;56781;42.292;23.146;2023-02-12T14:57:34;96739.94;;;2.27;77.56
69570;BME280;56781;42.292;23.146;2023-02-12T15:02:56;96752.81;;;2.42;77.78
69570;BME280;56781;42.292;23.146;2023-02-12T15:05:31;96752.66;;;2.37;77.01
69570;BME280;56781;42.292;23.146;2023-02-12T15:08:25;96793.53;;;2.59;77.63
69570;BME280;56781;42.292;23.146;2023-02-12T15:13:52;96778.09;;;2.56;75.27
69570;BME280;56781;42.292;23.146;2023-02-12T15:19:13;96812.63;;;2.61;75.91
69570;BME280;56781;42.292;23.146;2023-02-12T15:21:46;96811.66;;;2.56;76.65